Time;durP1;ratioP1;P1;durP2;ratioP2;P2;SDS_P1;SDS_P2;PMS_P1;PMS_P2;Temp;Humidity;BMP_temperature;BMP_pressure;BME280_temperature;BME280_humidity;BME280_pressure;Samples;Min_cycle;Max_cycle;Signal;HPM_P1;HPM_P2
2022/10/31 00:02:24;;;;;;;19.42;11.93;;;;;;;10.60;100.00;100856.00;5039833;28;20255;-75
2022/10/31 00:04:51;;;;;;;14.65;11.43;;;;;;;10.67;100.00;100859.34;5040876;28;20578;-75
2022/10/31 00:07:19;;;;;;;13.98;11.57;;;;;;;10.66;100.00;100865.69;5040721;28;20763;-75
2022/10/31 00:09:45;;;;;;;19.90;12.30;;;;;;;10.64;100.00;100865.72;5039859;28;20198;-75
2022/10/31 00:12:12;;;;;;;18.77;11.23;;;;;;;10.66;100.00;100865.69;5041272;28;20209;-76
2022/10/31 00:14:38;;;;;;;13.43;10.10;;;;;;;10.72;100.00;100868.16;5040898;28;20220;-75
2022/10/31 00:17:05;;;;;;;20.45;10.63;;;;;;;10.67;100.00;100861.16;5040645;28;20301;-75
2022/10/31 00:19:31;;;;;;;17.48;11.68;;;;;;;10.60;100.00;100858.69;5039430;28;20285;-75
2022/10/31 00:21:58;;;;;;;14.88;11.30;;;;;;;10.55;100.00;100857.13;5039330;28;20205;-75
2022/10/31 00:24:28;;;;;;;18.30;10.98;;;;;;;10.56;100.00;100866.94;5040462;28;20249;-76
2022/10/31 00:26:54;;;;;;;15.75;12.23;;;;;;;10.55;100.00;100866.09;5041564;28;20198;-74
2022/10/31 00:29:21;;;;;;;15.80;10.98;;;;;;;10.56;100.00;100862.47;5043354;28;20200;-75
2022/10/31 00:31:47;;;;;;;18.52;10.40;;;;;;;10.60;100.00;100866.78;5042298;28;20187;-74
2022/10/31 00:34:14;;;;;;;16.42;11.02;;;;;;;10.55;100.00;100867.91;5041018;28;20291;-75
2022/10/31 00:36:40;;;;;;;16.55;10.50;;;;;;;10.57;100.00;100871.41;5040834;28;20212;-75
2022/10/31 00:39:08;;;;;;;17.90;10.77;;;;;;;10.56;100.00;100880.41;5045316;28;20233;-75
2022/10/31 00:41:36;;;;;;;13.60;9.77;;;;;;;10.63;100.00;100877.47;5054439;28;20240;-75
2022/10/31 00:44:03;;;;;;;15.23;10.77;;;;;;;10.57;100.00;100891.16;5046774;28;20317;-75
2022/10/31 00:46:29;;;;;;;19.45;11.20;;;;;;;10.53;100.00;100888.63;5040527;28;20201;-74
2022/10/31 00:48:56;;;;;;;13.93;10.90;;;;;;;10.20;100.00;100883.53;5040618;28;20205;-74
2022/10/31 00:51:23;;;;;;;16.08;10.93;;;;;;;10.36;100.00;100882.06;5040532;28;20197;-74
2022/10/31 00:53:49;;;;;;;19.42;11.50;;;;;;;10.41;100.00;100887.28;5040096;28;20325;-76
2022/10/31 00:56:16;;;;;;;15.88;10.68;;;;;;;10.46;100.00;100892.50;5039954;28;20202;-75
2022/10/31 00:58:44;;;;;;;21.63;11.00;;;;;;;10.48;100.00;100883.41;5039154;28;20221;-75
2022/10/31 01:01:10;;;;;;;13.75;10.63;;;;;;;10.49;100.00;100895.97;5041573;28;20206;-76
2022/10/31 01:03:38;;;;;;;18.00;12.32;;;;;;;10.47;100.00;100891.53;5040044;28;20312;-74
2022/10/31 01:06:07;;;;;;;17.08;12.00;;;;;;;10.40;100.00;100885.50;5039792;28;20212;-75
2022/10/31 01:08:34;;;;;;;20.88;12.30;;;;;;;10.40;100.00;100885.50;5045551;28;20742;-73
2022/10/31 01:11:03;;;;;;;21.20;11.65;;;;;;;10.35;100.00;100887.50;5048312;28;20202;-75
2022/10/31 01:13:30;;;;;;;15.45;10.60;;;;;;;10.38;100.00;100888.28;5047820;28;20225;-74
2022/10/31 01:16:00;;;;;;;24.13;11.20;;;;;;;10.25;100.00;100894.13;5040386;28;20216;-75
2022/10/31 01:18:27;;;;;;;18.27;11.20;;;;;;;10.26;100.00;100890.50;5037281;28;20198;-76
2022/10/31 01:21:05;;;;;;;18.08;11.82;;;;;;;10.24;100.00;100895.91;5038487;28;20256;-76
2022/10/31 01:23:32;;;;;;;17.80;10.57;;;;;;;10.25;100.00;100892.31;5038652;28;20226;-76
2022/10/31 01:26:04;;;;;;;20.40;11.05;;;;;;;10.20;100.00;100889.78;5043223;28;20206;-74
2022/10/31 01:28:31;;;;;;;20.85;11.85;;;;;;;10.22;100.00;100890.59;5042832;28;20205;-75
2022/10/31 01:31:02;;;;;;;16.83;10.10;;;;;;;10.13;100.00;100879.28;5043276;28;20660;-75
2022/10/31 01:33:29;;;;;;;17.70;11.57;;;;;;;10.05;100.00;100879.56;5038474;28;20226;-74
2022/10/31 01:35:55;;;;;;;16.45;11.68;;;;;;;10.03;100.00;100881.44;5038423;28;20206;-74
2022/10/31 01:38:22;;;;;;;19.08;12.75;;;;;;;9.99;100.00;100877.06;5038341;28;20201;-74
2022/10/31 01:40:49;;;;;;;22.58;11.70;;;;;;;10.06;100.00;100872.34;5037000;28;20647;-74
2022/10/31 01:43:16;;;;;;;18.23;12.35;;;;;;;10.13;100.00;100874.78;5037080;28;20229;-75
2022/10/31 01:45:47;;;;;;;14.52;11.38;;;;;;;10.25;100.00;100881.53;5037518;28;20212;-74
2022/10/31 01:48:19;;;;;;;19.10;12.15;;;;;;;10.14;100.00;100873.84;5040668;28;20194;-75
2022/10/31 01:50:49;;;;;;;22.65;13.07;;;;;;;10.11;100.00;100876.66;5041729;28;20190;-76
2022/10/31 01:53:17;;;;;;;21.92;13.18;;;;;;;10.00;100.00;100870.78;5041392;28;20240;-76
2022/10/31 01:55:46;;;;;;;17.90;13.07;;;;;;;10.04;100.00;100869.75;5040900;28;20206;-74
2022/10/31 01:58:15;;;;;;;17.38;12.93;;;;;;;10.03;100.00;100870.66;5040577;28;20571;-74
2022/10/31 02:00:46;;;;;;;19.42;12.57;;;;;;;10.03;100.00;100867.97;5042442;28;20226;-74
2022/10/31 02:03:13;;;;;;;20.17;13.40;;;;;;;9.92;100.00;100868.34;5042888;28;20229;-75
2022/10/31 02:05:45;;;;;;;22.27;14.25;;;;;;;9.99;100.00;100869.91;5043078;28;20565;-74
2022/10/31 02:08:16;;;;;;;23.83;15.07;;;;;;;10.01;100.00;100868.00;5031765;28;20205;-75
2022/10/31 02:10:44;;;;;;;27.10;15.70;;;;;;;10.07;100.00;100860.69;5041889;28;20550;-75
2022/10/31 02:13:13;;;;;;;28.35;16.42;;;;;;;10.08;100.00;100870.50;5040615;28;20281;-75
2022/10/31 02:15:41;;;;;;;28.98;16.85;;;;;;;10.03;100.00;100868.84;5044043;28;20206;-75
2022/10/31 02:18:09;;;;;;;26.60;15.70;;;;;;;10.09;100.00;100866.88;5042919;28;20702;-74
2022/10/31 02:20:48;;;;;;;25.55;16.17;;;;;;;10.02;100.00;100863.53;5042043;28;20214;-76
2022/10/31 02:23:58;;;;;;;24.75;16.02;;;;;;;10.11;100.00;100876.66;5040893;28;20580;-75
2022/10/31 02:26:43;;;;;;;29.95;17.90;;;;;;;10.09;100.00;100866.88;5040287;28;20663;-74
2022/10/31 02:29:46;;;;;;;28.13;16.27;;;;;;;10.13;100.00;100868.50;5041021;28;20190;-75
2022/10/31 02:32:20;;;;;;;20.33;14.00;;;;;;;10.15;100.00;100862.16;4998917;28;20209;-74
2022/10/31 02:34:56;;;;;;;23.60;15.07;;;;;;;10.17;100.00;100868.34;4998912;28;20227;-75
2022/10/31 02:37:31;;;;;;;16.13;13.50;;;;;;;10.21;100.00;100867.31;4998511;28;20294;-74
2022/10/31 02:40:03;;;;;;;25.27;14.60;;;;;;;10.24;100.00;100871.69;4998633;28;20210;-76
2022/10/31 02:42:35;;;;;;;21.58;13.50;;;;;;;10.12;100.00;100864.94;4982212;28;20271;-75
2022/10/31 02:45:08;;;;;;;21.33;14.40;;;;;;;10.17;100.00;100870.16;4998316;28;20255;-75
2022/10/31 02:47:38;;;;;;;20.45;14.10;;;;;;;10.07;100.00;100876.81;4997809;28;20191;-76
2022/10/31 02:50:10;;;;;;;23.73;13.30;;;;;;;10.03;100.00;100873.34;4998276;28;20203;-75
2022/10/31 02:52:37;;;;;;;26.27;13.27;;;;;;;10.02;100.00;100869.78;4998325;28;20199;-75
2022/10/31 02:55:33;;;;;;;30.70;13.85;;;;;;;9.93;100.00;100874.63;4997973;28;20290;-74
2022/10/31 02:58:06;;;;;;;26.65;14.00;;;;;;;9.79;100.00;100872.38;4996790;28;20568;-75
2022/10/31 03:00:38;;;;;;;19.88;13.60;;;;;;;9.82;100.00;100877.69;5001839;28;20223;-74
2022/10/31 03:03:15;;;;;;;29.95;15.35;;;;;;;9.90;100.00;100870.19;5001569;28;20709;-75
2022/10/31 03:05:52;;;;;;;22.15;14.80;;;;;;;9.73;100.00;100868.13;4999505;28;20209;-75
2022/10/31 03:08:25;;;;;;;20.83;13.25;;;;;;;9.77;100.00;100863.53;5006383;28;20206;-75
2022/10/31 03:10:56;;;;;;;20.10;13.70;;;;;;;9.84;100.00;100866.88;5041603;28;20185;-75
2022/10/31 03:13:33;;;;;;;26.17;12.30;;;;;;;9.89;100.00;100863.06;5041626;28;20222;-74
2022/10/31 03:16:10;;;;;;;20.83;13.68;;;;;;;9.78;100.00;100862.56;5042626;28;20186;-74
2022/10/31 03:18:41;;;;;;;17.55;13.15;;;;;;;9.73;100.00;100873.50;5042701;28;20292;-75
2022/10/31 03:21:12;;;;;;;17.65;12.57;;;;;;;9.83;100.00;100868.66;5040607;28;20222;-75
2022/10/31 03:23:41;;;;;;;19.25;13.38;;;;;;;9.65;100.00;100864.78;5044698;28;20228;-73
2022/10/31 03:26:10;;;;;;;18.45;13.10;;;;;;;9.79;100.00;100859.84;5049869;28;20202;-74
2022/10/31 03:28:42;;;;;;;23.65;13.18;;;;;;;9.74;100.00;100859.09;5048006;28;20204;-75
2022/10/31 03:31:11;;;;;;;20.13;13.43;;;;;;;9.89;100.00;100856.81;5045420;28;20193;-75
2022/10/31 03:33:41;;;;;;;19.00;13.30;;;;;;;9.88;100.00;100855.97;5040334;28;20711;-74
2022/10/31 03:36:11;;;;;;;21.35;13.80;;;;;;;9.66;100.00;100855.81;5039642;28;20186;-74
2022/10/31 03:38:42;;;;;;;21.80;13.50;;;;;;;9.86;100.00;100856.91;5040361;28;20232;-74
2022/10/31 03:41:14;;;;;;;21.45;13.30;;;;;;;9.86;100.00;100847.06;5040177;28;20604;-74
2022/10/31 03:43:47;;;;;;;18.83;13.05;;;;;;;9.85;100.00;100852.47;5039658;28;20229;-74
2022/10/31 03:46:13;;;;;;;29.05;14.10;;;;;;;9.94;100.00;100849.47;5038568;28;20272;-75
2022/10/31 03:48:41;;;;;;;19.58;12.93;;;;;;;9.94;100.00;100849.47;5037992;28;20194;-75
2022/10/31 03:51:16;;;;;;;23.23;14.15;;;;;;;9.81;100.00;100852.59;5038984;28;20213;-73
2022/10/31 03:53:46;;;;;;;27.88;13.77;;;;;;;9.96;100.00;100848.47;5043397;28;20289;-75
2022/10/31 03:56:20;;;;;;;18.05;13.70;;;;;;;9.90;100.00;100854.06;5042771;28;20197;-75
2022/10/31 03:58:54;;;;;;;17.08;12.30;;;;;;;9.98;100.00;100840.34;5040556;28;20196;-75
2022/10/31 04:01:24;;;;;;;18.33;12.02;;;;;;;9.92;100.00;100840.56;5037934;28;20228;-74
2022/10/31 04:03:53;;;;;;;19.05;12.48;;;;;;;9.96;100.00;100845.78;5038177;28;20236;-76
2022/10/31 04:06:22;;;;;;;17.17;13.13;;;;;;;10.02;100.00;100847.38;5038252;28;20198;-75
2022/10/31 04:08:54;;;;;;;16.17;12.30;;;;;;;10.03;100.00;100844.63;5043181;28;20202;-75
2022/10/31 04:11:24;;;;;;;19.02;13.20;;;;;;;10.01;100.00;100843.78;5044631;28;20377;-74
2022/10/31 04:13:52;;;;;;;19.55;12.95;;;;;;;10.02;100.00;100837.50;5044661;28;20598;-75
2022/10/31 04:16:20;;;;;;;18.52;13.68;;;;;;;9.90;100.00;100835.22;5044091;28;20198;-75
2022/10/31 04:18:46;;;;;;;26.85;13.45;;;;;;;9.93;100.00;100845.03;5045421;28;20190;-76
2022/10/31 04:21:14;;;;;;;17.30;12.85;;;;;;;9.97;100.00;100850.25;5050074;28;20225;-74
2022/10/31 04:23:41;;;;;;;16.90;13.15;;;;;;;9.99;100.00;100844.78;5042134;28;20225;-75
2022/10/31 04:26:11;;;;;;;20.95;13.20;;;;;;;10.05;100.00;100852.66;5042476;28;20198;-75
2022/10/31 04:28:37;;;;;;;22.10;13.77;;;;;;;10.08;100.00;100852.53;5045692;28;20205;-75
2022/10/31 04:31:04;;;;;;;17.08;13.80;;;;;;;10.11;100.00;100854.25;5043108;28;20194;-75
2022/10/31 04:33:30;;;;;;;18.80;13.00;;;;;;;10.29;100.00;100850.91;5041182;28;20218;-75
2022/10/31 04:35:57;;;;;;;20.23;12.57;;;;;;;10.31;100.00;100853.53;5041220;28;20720;-76
2022/10/31 04:38:25;;;;;;;24.00;13.68;;;;;;;10.29;100.00;100850.91;5041771;28;20202;-76
2022/10/31 04:40:52;;;;;;;17.90;13.82;;;;;;;10.33;100.00;100844.47;5043829;28;20699;-74
2022/10/31 04:43:18;;;;;;;17.50;13.70;;;;;;;10.33;100.00;100848.97;5044818;28;20217;-74
2022/10/31 04:45:45;;;;;;;21.33;13.73;;;;;;;10.37;100.00;100859.56;5043623;28;20206;-75
2022/10/31 04:48:11;;;;;;;18.08;12.45;;;;;;;10.27;100.00;100862.66;5038095;28;20208;-76
2022/10/31 04:50:38;;;;;;;18.70;12.50;;;;;;;10.10;100.00;100864.13;5036874;28;20194;-74
2022/10/31 04:53:04;;;;;;;18.63;12.73;;;;;;;10.04;100.00;100869.75;5038504;28;20565;-74
2022/10/31 04:55:32;;;;;;;17.42;13.00;;;;;;;10.06;100.00;100875.06;5038071;28;20196;-75
2022/10/31 04:57:59;;;;;;;17.38;13.45;;;;;;;10.13;100.00;100871.19;5037857;28;20212;-74
2022/10/31 05:00:26;;;;;;;17.85;12.38;;;;;;;10.08;100.00;100868.69;5037578;28;20592;-73
2022/10/31 05:02:54;;;;;;;17.38;12.55;;;;;;;10.01;100.00;100864.44;5037958;28;20587;-76
2022/10/31 05:05:22;;;;;;;22.25;12.55;;;;;;;9.94;100.00;100871.00;5037990;28;20212;-72
2022/10/31 05:07:49;;;;;;;15.85;12.80;;;;;;;10.01;100.00;100853.69;5030079;28;20265;-75
2022/10/31 05:10:19;;;;;;;14.40;12.30;;;;;;;10.04;100.00;100861.66;5033841;28;20632;-75
2022/10/31 05:12:51;;;;;;;18.70;11.63;;;;;;;9.95;100.00;100851.22;5037770;28;20655;-74
2022/10/31 05:15:19;;;;;;;15.85;11.57;;;;;;;10.04;100.00;100845.53;5036072;28;20190;-76
2022/10/31 05:17:46;;;;;;;16.25;11.68;;;;;;;10.06;100.00;100853.53;5034867;28;20212;-75
2022/10/31 05:20:13;;;;;;;32.38;23.30;;;;;;;10.07;100.00;100845.41;5035280;28;20201;-75
2022/10/31 05:22:43;;;;;;;24.83;12.45;;;;;;;9.99;100.00;100837.63;5039004;28;20205;-75
2022/10/31 05:25:10;;;;;;;23.73;14.68;;;;;;;10.05;100.00;100836.50;5039020;28;20205;-75
2022/10/31 05:27:39;;;;;;;20.92;13.93;;;;;;;10.14;100.00;100837.97;5036801;28;20202;-75
2022/10/31 05:30:09;;;;;;;47.60;33.35;;;;;;;10.18;100.00;100831.56;5036655;28;20220;-76
2022/10/31 05:32:38;;;;;;;24.13;15.43;;;;;;;10.08;100.00;100840.88;5036850;28;20202;-75
2022/10/31 05:35:07;;;;;;;19.58;13.38;;;;;;;10.04;100.00;100845.53;5036042;28;20224;-75
2022/10/31 05:37:34;;;;;;;20.55;12.70;;;;;;;10.09;100.00;100853.44;5036403;28;20201;-75
2022/10/31 05:40:00;;;;;;;15.68;12.23;;;;;;;10.29;100.00;100844.63;5036858;28;20194;-73
2022/10/31 05:42:27;;;;;;;18.17;12.30;;;;;;;10.28;100.00;100848.25;5034835;28;20228;-75
2022/10/31 05:44:53;;;;;;;18.95;13.90;;;;;;;10.30;100.00;100849.09;5035406;28;20214;-74
2022/10/31 05:47:21;;;;;;;18.77;15.05;;;;;;;10.30;100.00;100851.78;5035389;28;20197;-75
2022/10/31 05:49:47;;;;;;;23.05;18.00;;;;;;;10.26;100.00;100847.41;5021418;28;20572;-74
2022/10/31 05:52:14;;;;;;;18.10;14.38;;;;;;;10.25;100.00;100843.84;5016240;28;20198;-74
2022/10/31 05:54:41;;;;;;;30.08;20.17;;;;;;;10.30;100.00;100849.97;5015730;28;20234;-74
2022/10/31 05:57:07;;;;;;;14.95;12.13;;;;;;;10.26;100.00;100839.34;5033006;28;20198;-77
2022/10/31 05:59:34;;;;;;;16.50;12.50;;;;;;;10.22;100.00;100846.63;5036110;28;20202;-74
2022/10/31 06:02:00;;;;;;;13.65;11.00;;;;;;;10.19;100.00;100844.94;5021432;28;20222;-74
2022/10/31 06:04:28;;;;;;;17.88;11.25;;;;;;;10.16;100.00;100842.38;5029838;28;20221;-75
2022/10/31 06:06:55;;;;;;;16.42;11.30;;;;;;;10.22;100.00;100841.25;5036434;28;20198;-74
2022/10/31 06:09:21;;;;;;;17.77;11.43;;;;;;;10.21;100.00;100848.47;5036848;28;20694;-76
2022/10/31 06:11:48;;;;;;;13.00;11.02;;;;;;;10.23;100.00;100843.03;5036135;28;20196;-75
2022/10/31 06:14:14;;;;;;;17.90;11.98;;;;;;;10.09;100.00;100840.84;5040929;28;20729;-75
2022/10/31 06:16:41;;;;;;;17.27;11.40;;;;;;;10.07;100.00;100842.72;5044076;28;20218;-75
2022/10/31 06:19:08;;;;;;;16.65;11.80;;;;;;;10.19;100.00;100839.56;5043722;28;20205;-75
2022/10/31 06:21:36;;;;;;;13.20;11.05;;;;;;;10.14;100.00;100838.84;5041273;28;20226;-75
2022/10/31 06:24:02;;;;;;;16.38;10.60;;;;;;;10.13;100.00;100849.66;5040922;28;20218;-75
2022/10/31 06:26:29;;;;;;;16.05;11.90;;;;;;;10.18;100.00;100847.72;5039602;28;20208;-75
2022/10/31 06:28:55;;;;;;;15.10;11.85;;;;;;;10.08;100.00;100844.44;5039588;28;20224;-75
2022/10/31 06:31:22;;;;;;;16.42;12.68;;;;;;;10.10;100.00;100839.91;5040742;28;20198;-74
2022/10/31 06:33:49;;;;;;;18.27;12.73;;;;;;;10.11;100.00;100847.06;5052059;28;20226;-75
2022/10/31 06:36:15;;;;;;;13.88;11.20;;;;;;;10.23;100.00;100841.22;5056525;28;20266;-75
2022/10/31 06:38:43;;;;;;;16.48;11.50;;;;;;;10.33;100.00;100838.22;5049734;28;20205;-73
2022/10/31 06:41:09;;;;;;;19.27;11.52;;;;;;;10.51;100.00;100855.47;5049276;28;20715;-74
2022/10/31 06:43:36;;;;;;;16.10;12.77;;;;;;;10.56;100.00;100851.69;5051029;28;20222;-75
2022/10/31 06:46:04;;;;;;;21.33;15.60;;;;;;;10.74;100.00;100850.13;5054011;28;20275;-75
2022/10/31 06:48:30;;;;;;;21.05;12.82;;;;;;;10.87;100.00;100855.00;5055712;28;20202;-74
2022/10/31 06:50:58;;;;;;;16.98;11.40;;;;;;;10.90;100.00;100853.09;5046912;28;20213;-77
2022/10/31 06:53:25;;;;;;;15.77;10.93;;;;;;;11.00;100.00;100853.59;5036585;28;20320;-77
2022/10/31 06:55:53;;;;;;;16.25;10.85;;;;;;;11.30;100.00;100850.59;5037075;28;20197;-77
2022/10/31 06:58:19;;;;;;;16.40;11.27;;;;;;;11.63;100.00;100856.38;5036710;28;20575;-77
2022/10/31 07:00:46;;;;;;;14.63;11.90;;;;;;;12.19;100.00;100846.78;5036654;28;20209;-78
2022/10/31 07:03:13;;;;;;;16.85;11.05;;;;;;;12.47;100.00;100835.59;5036902;28;20715;-76
2022/10/31 07:05:40;;;;;;;23.02;10.50;;;;;;;13.17;100.00;100831.34;5036433;28;20213;-75
2022/10/31 07:08:10;;;;;;;17.88;9.80;;;;;;;13.78;100.00;100830.09;5035111;28;20293;-75
2022/10/31 07:10:38;;;;;;;13.05;9.90;;;;;;;14.37;100.00;100823.34;5035951;28;20194;-76
2022/10/31 07:13:09;;;;;;;15.70;9.95;;;;;;;14.62;100.00;100829.28;5035493;28;20228;-75
2022/10/31 07:15:38;;;;;;;14.13;9.30;;;;;;;14.52;100.00;100829.75;5035675;28;20593;-75
2022/10/31 07:18:06;;;;;;;17.33;10.15;;;;;;;14.50;100.00;100825.41;5034512;28;20671;-74
2022/10/31 07:20:33;;;;;;;15.15;10.55;;;;;;;14.11;100.00;100834.69;5033977;28;20204;-73
2022/10/31 07:23:00;;;;;;;14.98;10.27;;;;;;;13.89;100.00;100832.28;5045127;28;20222;-75
2022/10/31 07:25:26;;;;;;;13.68;10.23;;;;;;;13.72;100.00;100838.53;5047459;28;20201;-74
2022/10/31 07:27:53;;;;;;;17.17;10.57;;;;;;;13.30;100.00;100845.19;5046909;28;20210;-75
2022/10/31 07:30:21;;;;;;;17.08;11.30;;;;;;;13.34;100.00;100844.97;5037330;28;20556;-74
2022/10/31 07:32:49;;;;;;;22.85;16.92;;;;;;;13.64;100.00;100852.47;5035670;28;20645;-74
2022/10/31 07:35:17;;;;;;;55.10;40.70;;;;;;;14.35;100.00;100841.50;5034516;28;20244;-75
2022/10/31 07:37:44;;;;;;;27.48;16.45;;;;;;;14.47;100.00;100844.50;5034030;28;20396;-72
2022/10/31 07:40:11;;;;;;;26.20;17.92;;;;;;;14.49;100.00;100839.88;5034143;28;20202;-76
2022/10/31 07:42:39;;;;;;;34.95;26.10;;;;;;;15.17;100.00;100839.72;5034005;28;20232;-75
2022/10/31 07:45:08;;;;;;;22.88;14.23;;;;;;;15.59;100.00;100839.03;5033535;28;20218;-74
2022/10/31 07:47:40;;;;;;;19.92;12.15;;;;;;;16.38;100.00;100831.59;5033451;28;20197;-75
2022/10/31 07:50:07;;;;;;;13.88;10.27;;;;;;;17.19;100.00;100837.28;5035879;28;20212;-75
2022/10/31 07:52:34;;;;;;;19.05;15.18;;;;;;;18.06;100.00;100825.00;5032315;28;20201;-74
2022/10/31 07:55:00;;;;;;;26.67;19.67;;;;;;;18.73;100.00;100832.09;5033512;28;20234;-75
2022/10/31 07:57:27;;;;;;;16.20;13.00;;;;;;;19.48;100.00;100836.59;5034446;28;20297;-74
2022/10/31 07:59:53;;;;;;;14.67;9.80;;;;;;;20.09;100.00;100825.56;5033553;28;20214;-73
2022/10/31 08:02:20;;;;;;;16.70;9.60;;;;;;;20.40;100.00;100829.47;5034265;28;20582;-74
2022/10/31 08:04:48;;;;;;;22.50;13.40;;;;;;;21.03;100.00;100833.47;5032221;28;20851;-75
2022/10/31 08:07:15;;;;;;;14.83;10.73;;;;;;;21.24;96.91;100832.69;5034129;28;20527;-75
2022/10/31 08:09:42;;;;;;;17.73;10.03;;;;;;;21.14;96.79;100834.44;5033355;28;20817;-75
2022/10/31 08:12:08;;;;;;;13.23;8.37;;;;;;;21.31;95.49;100831.16;5033650;28;20447;-74
2022/10/31 08:14:35;;;;;;;13.17;8.70;;;;;;;21.50;93.70;100829.66;5034727;28;20461;-75
2022/10/31 08:17:01;;;;;;;12.47;8.00;;;;;;;21.62;93.20;100828.63;5034840;28;20960;-75
2022/10/31 08:19:28;;;;;;;11.00;8.77;;;;;;;21.72;90.05;100832.28;5034286;28;20453;-75
2022/10/31 08:21:56;;;;;;;14.40;8.50;;;;;;;21.07;95.76;100830.47;5033263;28;20567;-75
2022/10/31 08:24:23;;;;;;;13.40;9.23;;;;;;;19.85;100.00;100817.41;5035350;28;20471;-74
2022/10/31 08:26:49;;;;;;;13.00;9.90;;;;;;;19.25;100.00;100825.53;5036246;28;20456;-75
2022/10/31 08:29:16;;;;;;;15.60;9.00;;;;;;;18.64;100.00;100822.72;5035698;28;20528;-75
2022/10/31 08:31:43;;;;;;;19.03;11.70;;;;;;;18.10;100.00;100826.53;5052311;28;20446;-74
2022/10/31 08:34:09;;;;;;;14.10;11.87;;;;;;;18.05;100.00;100820.56;5041320;28;20440;-75
2022/10/31 08:36:36;;;;;;;21.23;11.77;;;;;;;18.00;100.00;100820.00;5034612;28;20945;-75
2022/10/31 08:39:04;;;;;;;17.30;10.60;;;;;;;17.87;100.00;100811.81;5034403;28;20437;-75
2022/10/31 08:41:31;;;;;;;12.40;10.60;;;;;;;17.58;100.00;100812.91;5035546;28;20480;-74
2022/10/31 08:43:57;;;;;;;13.70;9.67;;;;;;;17.37;100.00;100815.25;5035362;28;20483;-75
2022/10/31 08:46:24;;;;;;;12.67;10.00;;;;;;;17.18;100.00;100813.72;5036803;28;20440;-74
2022/10/31 08:48:51;;;;;;;22.53;15.30;;;;;;;17.15;100.00;100811.22;5035509;28;20455;-74
2022/10/31 08:51:17;;;;;;;16.30;12.97;;;;;;;17.15;100.00;100811.22;5036432;28;20447;-76
2022/10/31 08:53:44;;;;;;;16.63;12.73;;;;;;;17.15;100.00;100808.50;5035067;28;20471;-74
2022/10/31 08:56:12;;;;;;;16.70;10.63;;;;;;;16.88;100.00;100809.34;5034877;28;20483;-76
2022/10/31 08:58:38;;;;;;;19.03;14.40;;;;;;;16.96;100.00;100807.97;5034857;28;20437;-75
2022/10/31 09:01:05;;;;;;;20.80;15.47;;;;;;;16.83;100.00;100792.44;5036540;28;20445;-75
2022/10/31 09:03:32;;;;;;;17.93;13.37;;;;;;;17.03;100.00;100806.59;5033215;28;20488;-74
2022/10/31 09:06:01;;;;;;;18.57;12.27;;;;;;;16.98;100.00;100809.63;5032879;28;20440;-74
2022/10/31 09:08:30;;;;;;;19.70;14.55;;;;;;;17.20;100.00;100802.75;5033421;28;20445;-75
2022/10/31 09:10:57;;;;;;;19.17;14.30;;;;;;;17.27;100.00;100807.66;5033007;28;20693;-75
2022/10/31 09:13:25;;;;;;;19.77;15.80;;;;;;;17.26;100.00;100805.94;5033232;28;20224;-75
2022/10/31 09:15:52;;;;;;;21.10;14.30;;;;;;;17.36;100.00;100799.88;5032643;28;20208;-74
2022/10/31 09:18:21;;;;;;;18.10;12.10;;;;;;;17.55;100.00;100797.66;5034879;28;20505;-75
2022/10/31 09:20:50;;;;;;;15.50;11.60;;;;;;;17.64;100.00;100785.28;5036061;28;20468;-75
2022/10/31 09:23:19;;;;;;;16.50;12.27;;;;;;;18.26;100.00;100790.03;5037872;28;20229;-75
2022/10/31 09:25:46;;;;;;;14.90;11.90;;;;;;;19.03;100.00;100790.78;5036424;28;20459;-75
2022/10/31 09:28:14;;;;;;;15.93;12.63;;;;;;;19.74;100.00;100789.06;5038024;28;20437;-74
2022/10/31 09:30:42;;;;;;;17.20;12.30;;;;;;;20.01;100.00;100782.41;5038703;28;20437;-78
2022/10/31 09:33:12;;;;;;;18.27;12.00;;;;;;;20.34;100.00;100780.72;5036353;28;20467;-75
2022/10/31 09:35:39;;;;;;;15.30;11.33;;;;;;;20.20;100.00;100777.22;5035195;28;20790;-76
2022/10/31 09:38:07;;;;;;;19.47;12.80;;;;;;;20.07;100.00;100781.91;5034797;28;20478;-74
2022/10/31 09:40:36;;;;;;;19.50;13.27;;;;;;;19.90;100.00;100788.72;5035515;28;20451;-75
2022/10/31 09:43:13;;;;;;;17.67;11.30;;;;;;;20.27;100.00;100784.94;5034898;28;20574;-74
2022/10/31 09:45:48;;;;;;;16.57;12.73;;;;;;;20.14;100.00;100776.84;5033057;28;20440;-75
2022/10/31 09:48:36;;;;;;;19.47;14.83;;;;;;;20.45;100.00;100777.13;5033443;28;20451;-76
2022/10/31 09:51:06;;;;;;;15.73;12.60;;;;;;;20.70;100.00;100774.16;5033855;28;20437;-74
2022/10/31 09:53:38;;;;;;;15.97;12.73;;;;;;;21.34;100.00;100775.25;5032950;28;20472;-74
2022/10/31 09:56:08;;;;;;;21.93;12.43;;;;;;;22.05;100.00;100781.03;5032405;28;20814;-74
2022/10/31 09:58:41;;;;;;;16.07;13.17;;;;;;;22.21;97.36;100775.97;5031497;28;20445;-74
2022/10/31 10:01:30;;;;;;;20.77;12.70;;;;;;;22.79;91.21;100779.97;5033014;28;20425;-75
2022/10/31 10:04:02;;;;;;;16.67;12.73;;;;;;;23.26;84.72;100772.00;5032917;28;20839;-75
2022/10/31 10:06:33;;;;;;;21.33;12.67;;;;;;;23.22;86.31;100781.53;5032186;28;20915;-75
2022/10/31 10:09:00;;;;;;;16.10;12.57;;;;;;;22.47;89.89;100770.03;5036185;28;20425;-74
2022/10/31 10:11:43;;;;;;;14.10;12.60;;;;;;;22.80;90.20;100763.34;5036092;28;20450;-74
2022/10/31 10:14:26;;;;;;;15.63;11.50;;;;;;;22.43;91.11;100760.31;5039213;28;20809;-75
2022/10/31 10:17:09;;;;;;;17.43;12.67;;;;;;;21.86;95.96;100763.44;5036018;28;20440;-73
2022/10/31 10:19:51;;;;;;;16.17;12.60;;;;;;;21.58;100.00;100759.47;5039778;28;20420;-75
2022/10/31 10:22:26;;;;;;;20.33;12.57;;;;;;;21.29;100.00;100761.06;5039098;28;20476;-74
2022/10/31 10:25:14;;;;;;;18.80;13.70;;;;;;;21.22;100.00;100755.25;5038015;28;20555;-74
2022/10/31 10:27:50;;;;;;;17.67;12.90;;;;;;;20.93;100.00;100753.06;5034903;28;20520;-73
2022/10/31 10:30:19;;;;;;;17.83;12.73;;;;;;;21.10;100.00;100756.25;5035937;28;20444;-75
2022/10/31 10:32:50;;;;;;;17.47;12.90;;;;;;;21.50;100.00;100756.53;5041009;28;20433;-75
2022/10/31 10:35:23;;;;;;;18.13;13.03;;;;;;;21.87;100.00;100750.63;5044588;28;20437;-74
2022/10/31 10:37:53;;;;;;;18.83;13.60;;;;;;;22.12;97.45;100748.47;5045818;28;20420;-73
2022/10/31 10:40:22;;;;;;;14.60;12.23;;;;;;;21.94;99.08;100740.84;5042698;28;20433;-76
2022/10/31 10:48:43;;;;;;;16.90;12.57;;;;;;;22.73;92.53;100736.63;5040518;28;20459;-75
2022/10/31 10:51:21;;;;;;;19.37;13.27;;;;;;;22.25;93.52;100733.53;5038911;28;20501;-74
2022/10/31 10:54:03;;;;;;;14.83;11.77;;;;;;;22.13;95.76;100729.09;5035276;28;20495;-74
2022/10/31 10:56:47;;;;;;;17.20;13.60;;;;;;;22.09;96.27;100722.13;5035871;28;20488;-74
2022/10/31 10:59:19;;;;;;;16.63;11.87;;;;;;;22.44;94.85;100726.41;5035426;28;20453;-75
2022/10/31 11:01:46;;;;;;;18.10;12.37;;;;;;;23.17;89.05;100727.03;5035252;28;20432;-74
2022/10/31 11:04:29;;;;;;;15.90;12.80;;;;;;;23.79;82.24;100718.47;5034808;28;20468;-76
2022/10/31 11:07:04;;;;;;;15.17;12.40;;;;;;;24.17;78.37;100708.41;5035560;28;20441;-75
2022/10/31 11:09:30;;;;;;;16.00;12.73;;;;;;;24.82;73.33;100705.66;5037772;28;20785;-78
2022/10/31 11:12:06;;;;;;;15.47;13.90;;;;;;;24.66;72.56;100704.44;5035859;28;20523;-75
2022/10/31 11:14:36;;;;;;;15.20;12.17;;;;;;;25.26;68.69;100708.53;5034416;28;20464;-75
2022/10/31 11:17:10;;;;;;;14.73;12.20;;;;;;;25.17;67.54;100699.31;5035719;28;20833;-76
2022/10/31 11:19:38;;;;;;;18.73;16.77;;;;;;;24.86;69.43;100683.16;5036620;28;20432;-77
2022/10/31 11:22:15;;;;;;;19.67;15.10;;;;;;;25.26;68.00;100680.97;5037329;28;20444;-74